Terminal Aerodrome Forecast
Issued by NWS

Home | Current Version | Previous Version | Text Only | Print | Product List | Glossary On
Versions: 1 2 3 4 5 6 7 8 9 10 11 12 13 14 15 16
000
FTUS45 KVEF 252320
TAFHND
TAF
KHND 252320Z 2600/2624 20010G18KT P6SM SCT100
     FM260400 19009KT P6SM FEW100
     FM261800 15012KT P6SM FEW120=

USA.gov is the U.S. government's official web portal to all federal, state and local government web resources and services.